x

Port Stanley (45132) Wave Buoy

1:00am - Sun 24th Jul 2016 All times are CDT. -5 hours from GMT.

  • Sig Wave height 0.3ft
  • Peak Period 3s
  • Wind
    4mph
  • Sea Temp 76°f
  • Air Temp 76°f
  • Sea Pressure 1015mb
  • Port Stanley
  • Port Stanley

More Historic Weather Station data

Upgrade to MSW Pro to gain access to the past 30 days of data for over 8000 Wavebouys and Weather Stations around the globe.

Join Pro

Comparision Forecast

View Surf forecast
   
Sun 07/24 1:00am 0.3ft 3s 4
mph
1015mb 76f 76f
12:00am 0.3ft 3s  -  mph 1015.4mb 77f 76f
Sat 07/23 11:00pm 0.3ft 3s 4
mph
1015.5mb 77f 77f
10:00pm 0.3ft 3s 7
mph
1015.4mb 77f 78f
9:00pm 0.3ft 2s 7
mph
1015.2mb 78f 79f
8:00pm 0.3ft 2s 9
mph
1014.3mb 78f 80f
7:00pm 0.3ft 2s 4
mph
1014mb 78f 80f
6:00pm 0.3ft 2s 7
mph
1013.8mb 78f 79f
5:00pm 0.3ft 2s 9
mph
1014mb 78f 79f
4:00pm 0.3ft 3s 11 13 mph 1014.2mb 78f 79f
3:00pm 0.3ft 3s 9
mph
1014.4mb 79f 79f
2:00pm 0.3ft 2s 7 9 mph 1014.7mb 78f 80f
1:00pm 0.3ft 3s 9
mph
1014.9mb 79f 78f
12:00pm 0.3ft 3s 2 4 mph 1014.9mb 79f 79f
11:00am 0.3ft 2s 2 4 mph 1014.8mb 77f 77f
10:00am 0.3ft 3s 7
mph
1014.7mb 76f 76f
9:00am 0.3ft 3s 7 9 mph 1014.5mb 76f 75f
8:00am 0.3ft 3s 9
mph
1014.6mb 76f 75f
7:00am 0.3ft 3s 2 4 mph 1014.2mb 76f 75f
6:00am 0.3ft 3s 7
mph
1014.1mb 75f 75f
5:00am 0.7ft 3s 9
mph
1013.9mb 75f 74f
4:00am 0.7ft 3s 9 11 mph 1013.5mb 75f 75f
3:00am 0.7ft 3s 9 11 mph 1013.4mb 76f 76f
2:00am 1ft 3s 11 13 mph 1013.3mb 76f 76f
1:00am 1ft 3s 13 16 mph 1012.9mb 76f 77f
12:00am 1ft 3s 13 16 mph 1012.8mb 76f 78f
Fri 07/22 11:00pm 1ft 3s 11 13 mph 1012.6mb 76f 77f
10:00pm 1ft 3s 13
mph
1012.6mb 76f 77f
9:00pm 1ft 3s 13 16 mph 1012.1mb 76f 78f
8:00pm 1.3ft 3s 13 16 mph 1011.8mb 76f 78f
7:00pm 1.6ft 4s 13 16 mph 1011.8mb 76f 79f
6:00pm 1.6ft 4s 16 18 mph 1011.9mb 76f 79f
5:00pm 1.6ft 4s 16 18 mph 1012.4mb 76f 79f
4:00pm 1.6ft 5s 16 20 mph 1013mb 76f 78f
3:00pm 1.6ft 5s 16 18 mph 1013.3mb 76f 77f
2:00pm 1.6ft 5s 16 18 mph 1013.9mb 76f 77f
1:00pm 1.6ft 5s 16 18 mph 1014mb 76f 76f
12:00pm 1.6ft 5s 13 16 mph 1014.2mb 76f 76f
11:00am 2ft 5s 13 16 mph 1014.5mb 75f 76f
10:00am 2ft 5s 13 16 mph 1014.1mb 75f 76f
9:00am 2ft 5s 11 13 mph 1013.6mb 75f 75f
8:00am 2ft 5s 9 11 mph 1013.4mb 75f 75f
7:00am 2.5ft 5s 4 7 mph 1013.5mb 75f 75f
6:00am 3ft 5s 7 9 mph 1013.6mb 75f 75f
5:00am 3.5ft 4s 20 25 mph 1012.1mb 75f 76f
4:00am 3ft 4s 20 29 mph 1012.3mb 75f 76f
3:00am 2.5ft 4s 22 27 mph 1011.9mb 75f 76f
2:00am 2ft 4s 20 22 mph 1013.3mb 75f 76f
1:00am 2ft 4s 18 22 mph 1013.5mb 75f 76f
12:00am 1.6ft 3s 20 25 mph 1013.5mb 75f 76f
Thu 07/21 11:00pm 1.3ft 3s 18 20 mph 1013.7mb 75f 77f
10:00pm 1.3ft 3s 13 16 mph 1013.6mb 75f 77f
9:00pm 1.3ft 3s 13
mph
1014.2mb 75f 77f
8:00pm 1.3ft 3s 18 22 mph 1014.1mb 75f 78f
7:00pm 1ft 3s 16 18 mph 1013.9mb 75f 78f
6:00pm 1ft 3s 11 13 mph 1014.2mb 75f 78f
5:00pm 1ft 3s 13 16 mph 1015.1mb 75f 78f
4:00pm 1.3ft 4s 13 16 mph 1015.7mb 75f 78f
3:00pm 1.3ft 3s 13
mph
1016.5mb 75f 78f
2:00pm 1.3ft 3s 13 16 mph 1017.3mb 75f 77f
1:00pm 1.3ft 3s 16 18 mph 1018.2mb 75f 76f
12:00pm 1.3ft 3s 13 16 mph 1018.5mb 75f 76f
11:00am 1ft 3s 13
mph
1019.3mb 75f 75f
10:00am 1ft 3s 11 13 mph 1019.4mb 74f 75f
9:00am 1ft 3s 11 13 mph 1019.6mb 74f 75f
8:00am 0.7ft 3s 11
mph
1019.8mb 74f 74f
7:00am 0.7ft 3s 11 13 mph 1020.3mb 74f 75f
6:00am 0.7ft 2s 9 11 mph 1020.4mb 74f 74f
5:00am 0.3ft 2s 9 11 mph 1020.6mb 74f 74f
4:00am 0.3ft 2s 9
mph
1020.7mb 74f 74f
3:00am 0.3ft 2s 7 9 mph 1020.9mb 74f 74f
2:00am 0.3ft 2s 9
mph
1020.8mb 74f 74f
1:00am 0.3ft 2s 9 11 mph 1020.8mb 74f 74f
12:00am 0.3ft 2s 9
mph
1021.4mb 74f 74f
Wed 07/20 11:00pm 0.3ft 2s 9
mph
1021.7mb 74f 74f
10:00pm 0.3ft 2s 7 9 mph 1021.8mb 74f 74f
9:00pm 0.3ft 2s 7 9 mph 1022.1mb 74f 74f
8:00pm 0.7ft 2s 7 9 mph 1021.5mb 74f 74f
7:00pm 0.7ft 2s 11
mph
1021.6mb 74f 74f
6:00pm 0.7ft 2s 11 13 mph 1022.1mb 75f 74f
5:00pm 0.3ft 2s 11 13 mph 1022.5mb 75f 73f
4:00pm 0.3ft 3s 9 11 mph 1023.1mb 75f 73f
3:00pm 0.3ft 4s 9 11 mph 1023.1mb 75f 72f
2:00pm 0.7ft 4s 7 9 mph 1023.6mb 75f 71f
1:00pm 0.7ft 4s 4 7 mph 1024.3mb 75f 71f
12:00pm 0.7ft 4s 4 7 mph 1024.6mb 75f 70f
11:00am 0.7ft 4s 4
mph
1024.9mb 74f 68f
10:00am 0.7ft 4s 7 9 mph 1025mb 74f 67f
9:00am 0.7ft 3s 4 7 mph 1025.5mb 73f 65f
8:00am 0.7ft 3s 7 9 mph 1025.5mb 73f 65f